sensor_id;sensor_type;location;lat;lon;timestamp;P1;durP1;ratioP1;P2;durP2;ratioP2
39970;SDS011;35425;51.142;17.178;2023-01-08T00:01:16;7.05;;;6.28;;
39970;SDS011;35425;51.142;17.178;2023-01-08T00:03:43;7.93;;;6.25;;
39970;SDS011;35425;51.142;17.178;2023-01-08T00:06:10;6.70;;;5.75;;
39970;SDS011;35425;51.142;17.178;2023-01-08T00:08:37;6.63;;;5.93;;
39970;SDS011;35425;51.142;17.178;2023-01-08T00:11:04;7.25;;;6.47;;
39970;SDS011;35425;51.142;17.178;2023-01-08T00:13:30;7.45;;;6.15;;
39970;SDS011;35425;51.142;17.178;2023-01-08T00:16:01;6.22;;;5.28;;
39970;SDS011;35425;51.142;17.178;2023-01-08T00:18:28;8.23;;;6.50;;
39970;SDS011;35425;51.142;17.178;2023-01-08T00:20:54;6.75;;;5.75;;
39970;SDS011;35425;51.142;17.178;2023-01-08T00:23:21;6.40;;;5.80;;
39970;SDS011;35425;51.142;17.178;2023-01-08T00:25:48;6.93;;;6.10;;
39970;SDS011;35425;51.142;17.178;2023-01-08T00:28:15;6.85;;;5.78;;
39970;SDS011;35425;51.142;17.178;2023-01-08T00:30:42;7.30;;;6.13;;
39970;SDS011;35425;51.142;17.178;2023-01-08T00:33:09;6.22;;;5.63;;
39970;SDS011;35425;51.142;17.178;2023-01-08T00:35:38;6.80;;;6.10;;
39970;SDS011;35425;51.142;17.178;2023-01-08T00:38:05;6.82;;;5.90;;
39970;SDS011;35425;51.142;17.178;2023-01-08T00:40:32;6.85;;;5.53;;
39970;SDS011;35425;51.142;17.178;2023-01-08T00:42:59;7.47;;;5.50;;
39970;SDS011;35425;51.142;17.178;2023-01-08T00:45:25;7.22;;;5.72;;
39970;SDS011;35425;51.142;17.178;2023-01-08T00:47:52;6.50;;;5.75;;
39970;SDS011;35425;51.142;17.178;2023-01-08T00:50:18;7.38;;;6.18;;
39970;SDS011;35425;51.142;17.178;2023-01-08T00:52:45;7.18;;;5.88;;
39970;SDS011;35425;51.142;17.178;2023-01-08T00:55:11;6.55;;;5.80;;
39970;SDS011;35425;51.142;17.178;2023-01-08T00:57:38;6.90;;;5.82;;
39970;SDS011;35425;51.142;17.178;2023-01-08T01:00:06;6.70;;;5.82;;
39970;SDS011;35425;51.142;17.178;2023-01-08T01:02:37;6.10;;;5.50;;
39970;SDS011;35425;51.142;17.178;2023-01-08T01:05:04;7.82;;;6.38;;
39970;SDS011;35425;51.142;17.178;2023-01-08T01:07:32;7.38;;;6.25;;
39970;SDS011;35425;51.142;17.178;2023-01-08T01:10:01;6.43;;;5.63;;
39970;SDS011;35425;51.142;17.178;2023-01-08T01:12:28;6.78;;;6.07;;
39970;SDS011;35425;51.142;17.178;2023-01-08T01:14:55;6.75;;;5.80;;
39970;SDS011;35425;51.142;17.178;2023-01-08T01:17:21;6.53;;;5.57;;
39970;SDS011;35425;51.142;17.178;2023-01-08T01:19:48;6.85;;;5.70;;
39970;SDS011;35425;51.142;17.178;2023-01-08T01:22:14;7.15;;;6.03;;
39970;SDS011;35425;51.142;17.178;2023-01-08T01:24:40;7.18;;;5.78;;
39970;SDS011;35425;51.142;17.178;2023-01-08T01:27:07;7.53;;;5.70;;
39970;SDS011;35425;51.142;17.178;2023-01-08T01:29:33;6.07;;;5.45;;
39970;SDS011;35425;51.142;17.178;2023-01-08T01:32:00;7.50;;;6.07;;
39970;SDS011;35425;51.142;17.178;2023-01-08T01:34:26;6.97;;;6.03;;
39970;SDS011;35425;51.142;17.178;2023-01-08T01:36:53;6.40;;;5.60;;
39970;SDS011;35425;51.142;17.178;2023-01-08T01:39:19;6.22;;;5.43;;
39970;SDS011;35425;51.142;17.178;2023-01-08T01:41:46;8.10;;;6.07;;
39970;SDS011;35425;51.142;17.178;2023-01-08T01:44:32;7.28;;;6.32;;
39970;SDS011;35425;51.142;17.178;2023-01-08T01:47:00;7.03;;;6.32;;
39970;SDS011;35425;51.142;17.178;2023-01-08T01:49:27;7.18;;;6.10;;
39970;SDS011;35425;51.142;17.178;2023-01-08T01:51:55;7.90;;;6.38;;
39970;SDS011;35425;51.142;17.178;2023-01-08T01:54:22;6.68;;;5.85;;
39970;SDS011;35425;51.142;17.178;2023-01-08T01:56:50;7.10;;;5.65;;
39970;SDS011;35425;51.142;17.178;2023-01-08T01:59:16;6.75;;;5.55;;
39970;SDS011;35425;51.142;17.178;2023-01-08T02:01:43;6.82;;;6.10;;
39970;SDS011;35425;51.142;17.178;2023-01-08T02:04:10;6.95;;;6.25;;
39970;SDS011;35425;51.142;17.178;2023-01-08T02:06:39;7.47;;;6.47;;
39970;SDS011;35425;51.142;17.178;2023-01-08T02:09:22;7.28;;;5.63;;
39970;SDS011;35425;51.142;17.178;2023-01-08T02:11:55;7.78;;;6.38;;
39970;SDS011;35425;51.142;17.178;2023-01-08T02:14:48;7.50;;;5.85;;
39970;SDS011;35425;51.142;17.178;2023-01-08T02:17:21;7.18;;;5.70;;
39970;SDS011;35425;51.142;17.178;2023-01-08T02:19:53;6.57;;;5.70;;
39970;SDS011;35425;51.142;17.178;2023-01-08T02:25:00;6.70;;;5.43;;
39970;SDS011;35425;51.142;17.178;2023-01-08T02:27:30;6.95;;;6.05;;
39970;SDS011;35425;51.142;17.178;2023-01-08T02:29:57;7.68;;;6.03;;
39970;SDS011;35425;51.142;17.178;2023-01-08T02:32:26;6.97;;;5.57;;
39970;SDS011;35425;51.142;17.178;2023-01-08T02:34:56;6.32;;;5.68;;
39970;SDS011;35425;51.142;17.178;2023-01-08T02:37:23;6.68;;;5.60;;
39970;SDS011;35425;51.142;17.178;2023-01-08T02:40:05;7.15;;;5.82;;
39970;SDS011;35425;51.142;17.178;2023-01-08T02:42:40;6.43;;;5.78;;
39970;SDS011;35425;51.142;17.178;2023-01-08T02:45:18;7.00;;;5.90;;
39970;SDS011;35425;51.142;17.178;2023-01-08T02:47:51;6.60;;;5.80;;
39970;SDS011;35425;51.142;17.178;2023-01-08T02:55:40;7.32;;;5.90;;
39970;SDS011;35425;51.142;17.178;2023-01-08T02:58:07;6.35;;;5.30;;
39970;SDS011;35425;51.142;17.178;2023-01-08T03:00:34;6.80;;;5.95;;
39970;SDS011;35425;51.142;17.178;2023-01-08T03:03:06;7.38;;;5.97;;
39970;SDS011;35425;51.142;17.178;2023-01-08T03:05:33;6.90;;;5.55;;
39970;SDS011;35425;51.142;17.178;2023-01-08T03:08:00;6.72;;;5.95;;
39970;SDS011;35425;51.142;17.178;2023-01-08T03:10:27;7.85;;;6.15;;
39970;SDS011;35425;51.142;17.178;2023-01-08T03:12:56;6.93;;;5.95;;
39970;SDS011;35425;51.142;17.178;2023-01-08T03:15:26;6.88;;;5.78;;
39970;SDS011;35425;51.142;17.178;2023-01-08T03:17:56;7.55;;;5.95;;
39970;SDS011;35425;51.142;17.178;2023-01-08T03:20:24;7.55;;;6.15;;
39970;SDS011;35425;51.142;17.178;2023-01-08T03:22:54;7.80;;;6.90;;
39970;SDS011;35425;51.142;17.178;2023-01-08T03:25:22;7.20;;;6.20;;
39970;SDS011;35425;51.142;17.178;2023-01-08T03:27:52;7.97;;;6.38;;
39970;SDS011;35425;51.142;17.178;2023-01-08T03:30:20;7.25;;;6.55;;
39970;SDS011;35425;51.142;17.178;2023-01-08T03:32:47;7.30;;;6.50;;
39970;SDS011;35425;51.142;17.178;2023-01-08T03:35:14;7.72;;;6.90;;
39970;SDS011;35425;51.142;17.178;2023-01-08T03:37:44;7.88;;;6.93;;
39970;SDS011;35425;51.142;17.178;2023-01-08T03:40:19;7.75;;;6.90;;
39970;SDS011;35425;51.142;17.178;2023-01-08T03:42:46;7.55;;;6.38;;
39970;SDS011;35425;51.142;17.178;2023-01-08T03:45:13;7.70;;;6.88;;
39970;SDS011;35425;51.142;17.178;2023-01-08T03:47:39;7.53;;;6.75;;
39970;SDS011;35425;51.142;17.178;2023-01-08T03:50:08;7.65;;;6.32;;
39970;SDS011;35425;51.142;17.178;2023-01-08T03:52:35;7.43;;;6.70;;
39970;SDS011;35425;51.142;17.178;2023-01-08T03:55:02;7.50;;;6.70;;
39970;SDS011;35425;51.142;17.178;2023-01-08T03:57:28;8.43;;;6.70;;
39970;SDS011;35425;51.142;17.178;2023-01-08T03:59:55;7.63;;;6.82;;
39970;SDS011;35425;51.142;17.178;2023-01-08T04:02:21;7.32;;;6.57;;
39970;SDS011;35425;51.142;17.178;2023-01-08T04:04:48;8.25;;;6.78;;
39970;SDS011;35425;51.142;17.178;2023-01-08T04:07:14;7.60;;;6.70;;
39970;SDS011;35425;51.142;17.178;2023-01-08T04:09:41;7.93;;;6.78;;
39970;SDS011;35425;51.142;17.178;2023-01-08T04:12:07;7.65;;;6.57;;
39970;SDS011;35425;51.142;17.178;2023-01-08T04:14:34;7.18;;;6.35;;
39970;SDS011;35425;51.142;17.178;2023-01-08T04:17:00;6.93;;;6.22;;
39970;SDS011;35425;51.142;17.178;2023-01-08T04:19:27;7.13;;;6.43;;
39970;SDS011;35425;51.142;17.178;2023-01-08T04:21:53;7.53;;;6.38;;
39970;SDS011;35425;51.142;17.178;2023-01-08T04:24:20;8.38;;;7.30;;
39970;SDS011;35425;51.142;17.178;2023-01-08T04:26:49;7.40;;;6.13;;
39970;SDS011;35425;51.142;17.178;2023-01-08T04:29:15;7.65;;;6.60;;
39970;SDS011;35425;51.142;17.178;2023-01-08T04:31:42;7.45;;;6.47;;
39970;SDS011;35425;51.142;17.178;2023-01-08T04:34:14;7.03;;;6.25;;
39970;SDS011;35425;51.142;17.178;2023-01-08T04:36:40;8.18;;;6.68;;
39970;SDS011;35425;51.142;17.178;2023-01-08T04:39:07;7.75;;;6.78;;
39970;SDS011;35425;51.142;17.178;2023-01-08T04:41:34;7.43;;;6.57;;
39970;SDS011;35425;51.142;17.178;2023-01-08T04:44:00;7.90;;;6.93;;
39970;SDS011;35425;51.142;17.178;2023-01-08T04:46:27;7.72;;;6.85;;
39970;SDS011;35425;51.142;17.178;2023-01-08T04:48:53;7.10;;;6.40;;
39970;SDS011;35425;51.142;17.178;2023-01-08T04:51:20;7.25;;;6.53;;
39970;SDS011;35425;51.142;17.178;2023-01-08T04:53:47;8.10;;;7.07;;
39970;SDS011;35425;51.142;17.178;2023-01-08T04:56:13;7.68;;;6.38;;
39970;SDS011;35425;51.142;17.178;2023-01-08T04:58:40;7.18;;;6.47;;
39970;SDS011;35425;51.142;17.178;2023-01-08T05:01:15;7.28;;;6.53;;
39970;SDS011;35425;51.142;17.178;2023-01-08T05:03:43;8.18;;;6.38;;
39970;SDS011;35425;51.142;17.178;2023-01-08T05:06:10;7.57;;;6.43;;
39970;SDS011;35425;51.142;17.178;2023-01-08T05:08:36;7.43;;;6.20;;
39970;SDS011;35425;51.142;17.178;2023-01-08T05:11:03;7.38;;;6.32;;
39970;SDS011;35425;51.142;17.178;2023-01-08T05:13:29;6.90;;;6.20;;
39970;SDS011;35425;51.142;17.178;2023-01-08T05:15:59;7.10;;;6.38;;
39970;SDS011;35425;51.142;17.178;2023-01-08T05:18:26;7.15;;;5.95;;
39970;SDS011;35425;51.142;17.178;2023-01-08T05:20:53;7.07;;;6.38;;
39970;SDS011;35425;51.142;17.178;2023-01-08T05:23:20;7.53;;;6.47;;
39970;SDS011;35425;51.142;17.178;2023-01-08T05:25:46;6.78;;;6.07;;
39970;SDS011;35425;51.142;17.178;2023-01-08T05:28:13;7.65;;;6.15;;
39970;SDS011;35425;51.142;17.178;2023-01-08T05:30:39;7.88;;;6.95;;
39970;SDS011;35425;51.142;17.178;2023-01-08T05:33:06;6.90;;;6.10;;
39970;SDS011;35425;51.142;17.178;2023-01-08T05:35:32;6.70;;;5.93;;
39970;SDS011;35425;51.142;17.178;2023-01-08T05:37:59;7.28;;;6.20;;
39970;SDS011;35425;51.142;17.178;2023-01-08T05:40:25;8.50;;;6.55;;
39970;SDS011;35425;51.142;17.178;2023-01-08T05:42:52;7.32;;;6.53;;
39970;SDS011;35425;51.142;17.178;2023-01-08T05:45:19;8.18;;;7.28;;
39970;SDS011;35425;51.142;17.178;2023-01-08T05:47:45;7.95;;;6.82;;
39970;SDS011;35425;51.142;17.178;2023-01-08T05:50:12;9.18;;;7.38;;
39970;SDS011;35425;51.142;17.178;2023-01-08T05:52:38;8.38;;;7.00;;
39970;SDS011;35425;51.142;17.178;2023-01-08T05:55:05;9.40;;;7.55;;
39970;SDS011;35425;51.142;17.178;2023-01-08T05:57:31;8.73;;;7.47;;
39970;SDS011;35425;51.142;17.178;2023-01-08T05:59:58;9.82;;;8.13;;
39970;SDS011;35425;51.142;17.178;2023-01-08T06:02:30;9.27;;;7.68;;
39970;SDS011;35425;51.142;17.178;2023-01-08T06:05:03;9.13;;;7.97;;
39970;SDS011;35425;51.142;17.178;2023-01-08T06:07:30;9.43;;;7.75;;
39970;SDS011;35425;51.142;17.178;2023-01-08T06:09:56;9.10;;;7.93;;
39970;SDS011;35425;51.142;17.178;2023-01-08T06:12:23;8.82;;;7.65;;
39970;SDS011;35425;51.142;17.178;2023-01-08T06:14:49;9.02;;;7.22;;
39970;SDS011;35425;51.142;17.178;2023-01-08T06:17:16;9.30;;;7.43;;
39970;SDS011;35425;51.142;17.178;2023-01-08T06:19:42;9.73;;;8.07;;
39970;SDS011;35425;51.142;17.178;2023-01-08T06:22:11;9.48;;;7.65;;
39970;SDS011;35425;51.142;17.178;2023-01-08T06:24:38;9.10;;;7.45;;
39970;SDS011;35425;51.142;17.178;2023-01-08T06:27:04;9.38;;;7.78;;
39970;SDS011;35425;51.142;17.178;2023-01-08T06:29:34;9.00;;;7.15;;
39970;SDS011;35425;51.142;17.178;2023-01-08T06:32:01;8.73;;;7.60;;
39970;SDS011;35425;51.142;17.178;2023-01-08T06:34:27;9.32;;;7.45;;
39970;SDS011;35425;51.142;17.178;2023-01-08T06:36:53;9.77;;;7.22;;
39970;SDS011;35425;51.142;17.178;2023-01-08T06:39:20;10.05;;;7.50;;
39970;SDS011;35425;51.142;17.178;2023-01-08T06:41:46;9.48;;;7.43;;
39970;SDS011;35425;51.142;17.178;2023-01-08T06:44:13;8.88;;;7.53;;
39970;SDS011;35425;51.142;17.178;2023-01-08T06:46:39;8.65;;;7.00;;
39970;SDS011;35425;51.142;17.178;2023-01-08T06:49:06;9.90;;;7.55;;
39970;SDS011;35425;51.142;17.178;2023-01-08T06:51:35;8.65;;;6.95;;
39970;SDS011;35425;51.142;17.178;2023-01-08T06:54:06;7.97;;;6.93;;
39970;SDS011;35425;51.142;17.178;2023-01-08T06:56:38;7.05;;;5.90;;
39970;SDS011;35425;51.142;17.178;2023-01-08T06:59:18;8.30;;;6.53;;
39970;SDS011;35425;51.142;17.178;2023-01-08T07:01:45;8.38;;;6.80;;
39970;SDS011;35425;51.142;17.178;2023-01-08T07:04:11;7.22;;;6.18;;
39970;SDS011;35425;51.142;17.178;2023-01-08T07:06:38;7.60;;;6.25;;
39970;SDS011;35425;51.142;17.178;2023-01-08T07:09:04;7.00;;;5.78;;
39970;SDS011;35425;51.142;17.178;2023-01-08T07:11:31;7.63;;;6.55;;
39970;SDS011;35425;51.142;17.178;2023-01-08T07:13:58;9.13;;;6.85;;
39970;SDS011;35425;51.142;17.178;2023-01-08T07:16:25;6.70;;;5.70;;
39970;SDS011;35425;51.142;17.178;2023-01-08T07:18:51;7.43;;;6.53;;
39970;SDS011;35425;51.142;17.178;2023-01-08T07:21:21;7.30;;;6.40;;
39970;SDS011;35425;51.142;17.178;2023-01-08T07:23:48;8.38;;;6.90;;
39970;SDS011;35425;51.142;17.178;2023-01-08T07:26:15;6.80;;;6.10;;
39970;SDS011;35425;51.142;17.178;2023-01-08T07:28:45;7.05;;;5.80;;
39970;SDS011;35425;51.142;17.178;2023-01-08T07:31:11;6.75;;;6.07;;
39970;SDS011;35425;51.142;17.178;2023-01-08T07:33:38;6.93;;;5.70;;
39970;SDS011;35425;51.142;17.178;2023-01-08T07:36:08;7.07;;;5.97;;
39970;SDS011;35425;51.142;17.178;2023-01-08T07:38:34;6.72;;;5.65;;
39970;SDS011;35425;51.142;17.178;2023-01-08T07:41:00;7.40;;;5.85;;
39970;SDS011;35425;51.142;17.178;2023-01-08T07:43:30;6.60;;;5.43;;
39970;SDS011;35425;51.142;17.178;2023-01-08T07:46:06;6.63;;;5.75;;
39970;SDS011;35425;51.142;17.178;2023-01-08T07:48:32;6.20;;;5.57;;
39970;SDS011;35425;51.142;17.178;2023-01-08T07:51:00;6.22;;;5.40;;
39970;SDS011;35425;51.142;17.178;2023-01-08T07:53:26;6.30;;;5.53;;
39970;SDS011;35425;51.142;17.178;2023-01-08T07:55:57;6.85;;;6.03;;
39970;SDS011;35425;51.142;17.178;2023-01-08T07:58:24;6.57;;;5.70;;
39970;SDS011;35425;51.142;17.178;2023-01-08T08:00:50;5.88;;;4.97;;
39970;SDS011;35425;51.142;17.178;2023-01-08T08:03:16;6.10;;;5.40;;
39970;SDS011;35425;51.142;17.178;2023-01-08T08:05:43;6.95;;;5.18;;
39970;SDS011;35425;51.142;17.178;2023-01-08T08:08:10;6.75;;;5.25;;
39970;SDS011;35425;51.142;17.178;2023-01-08T08:10:37;6.60;;;4.90;;
39970;SDS011;35425;51.142;17.178;2023-01-08T08:13:04;5.70;;;4.57;;
39970;SDS011;35425;51.142;17.178;2023-01-08T08:15:31;6.10;;;5.50;;
39970;SDS011;35425;51.142;17.178;2023-01-08T08:17:58;6.22;;;4.93;;
39970;SDS011;35425;51.142;17.178;2023-01-08T08:20:24;5.18;;;4.50;;
39970;SDS011;35425;51.142;17.178;2023-01-08T08:22:51;5.75;;;5.00;;
39970;SDS011;35425;51.142;17.178;2023-01-08T08:25:17;5.53;;;4.93;;
39970;SDS011;35425;51.142;17.178;2023-01-08T08:27:44;6.28;;;4.75;;
39970;SDS011;35425;51.142;17.178;2023-01-08T08:30:10;6.38;;;5.00;;
39970;SDS011;35425;51.142;17.178;2023-01-08T08:32:37;5.40;;;4.57;;
39970;SDS011;35425;51.142;17.178;2023-01-08T08:35:04;6.15;;;4.47;;
39970;SDS011;35425;51.142;17.178;2023-01-08T08:37:30;4.97;;;3.97;;
39970;SDS011;35425;51.142;17.178;2023-01-08T08:39:57;4.72;;;4.22;;
39970;SDS011;35425;51.142;17.178;2023-01-08T08:42:23;5.82;;;4.65;;
39970;SDS011;35425;51.142;17.178;2023-01-08T08:44:49;4.53;;;4.13;;
39970;SDS011;35425;51.142;17.178;2023-01-08T08:47:16;4.60;;;3.90;;
39970;SDS011;35425;51.142;17.178;2023-01-08T08:49:43;4.75;;;4.15;;
39970;SDS011;35425;51.142;17.178;2023-01-08T08:52:09;5.15;;;4.60;;
39970;SDS011;35425;51.142;17.178;2023-01-08T08:54:35;4.93;;;3.92;;
39970;SDS011;35425;51.142;17.178;2023-01-08T08:57:07;4.80;;;3.80;;
39970;SDS011;35425;51.142;17.178;2023-01-08T08:59:34;4.40;;;3.58;;
39970;SDS011;35425;51.142;17.178;2023-01-08T09:02:01;4.32;;;3.88;;
39970;SDS011;35425;51.142;17.178;2023-01-08T09:04:31;5.28;;;3.95;;
39970;SDS011;35425;51.142;17.178;2023-01-08T09:06:58;4.75;;;3.92;;
39970;SDS011;35425;51.142;17.178;2023-01-08T09:09:24;4.68;;;3.72;;
39970;SDS011;35425;51.142;17.178;2023-01-08T09:11:51;4.95;;;3.70;;
39970;SDS011;35425;51.142;17.178;2023-01-08T09:14:18;5.13;;;3.42;;
39970;SDS011;35425;51.142;17.178;2023-01-08T09:16:45;5.22;;;3.55;;
39970;SDS011;35425;51.142;17.178;2023-01-08T09:19:11;4.90;;;4.20;;
39970;SDS011;35425;51.142;17.178;2023-01-08T09:21:41;4.65;;;3.67;;
39970;SDS011;35425;51.142;17.178;2023-01-08T09:24:10;4.22;;;3.80;;
39970;SDS011;35425;51.142;17.178;2023-01-08T09:26:37;4.55;;;4.15;;
39970;SDS011;35425;51.142;17.178;2023-01-08T09:29:03;4.40;;;3.78;;
39970;SDS011;35425;51.142;17.178;2023-01-08T09:31:30;4.50;;;3.80;;
39970;SDS011;35425;51.142;17.178;2023-01-08T09:33:57;5.03;;;4.47;;
39970;SDS011;35425;51.142;17.178;2023-01-08T09:36:23;4.38;;;3.85;;
39970;SDS011;35425;51.142;17.178;2023-01-08T09:38:50;4.60;;;4.00;;
39970;SDS011;35425;51.142;17.178;2023-01-08T09:41:18;4.03;;;3.60;;
39970;SDS011;35425;51.142;17.178;2023-01-08T09:43:47;3.70;;;3.10;;
39970;SDS011;35425;51.142;17.178;2023-01-08T09:46:15;4.25;;;3.83;;
39970;SDS011;35425;51.142;17.178;2023-01-08T09:48:43;4.45;;;3.50;;
39970;SDS011;35425;51.142;17.178;2023-01-08T09:51:14;4.97;;;4.20;;
39970;SDS011;35425;51.142;17.178;2023-01-08T09:53:41;4.47;;;4.05;;
39970;SDS011;35425;51.142;17.178;2023-01-08T09:56:14;5.40;;;4.70;;
39970;SDS011;35425;51.142;17.178;2023-01-08T09:58:44;4.93;;;4.18;;
39970;SDS011;35425;51.142;17.178;2023-01-08T10:01:16;4.40;;;4.00;;
39970;SDS011;35425;51.142;17.178;2023-01-08T10:03:44;4.97;;;4.47;;
39970;SDS011;35425;51.142;17.178;2023-01-08T10:06:11;4.45;;;4.05;;
39970;SDS011;35425;51.142;17.178;2023-01-08T10:08:38;4.95;;;4.38;;
39970;SDS011;35425;51.142;17.178;2023-01-08T10:11:05;5.50;;;4.35;;
39970;SDS011;35425;51.142;17.178;2023-01-08T10:13:32;5.68;;;4.75;;
39970;SDS011;35425;51.142;17.178;2023-01-08T10:16:00;6.35;;;4.60;;
39970;SDS011;35425;51.142;17.178;2023-01-08T10:18:29;5.38;;;4.88;;
39970;SDS011;35425;51.142;17.178;2023-01-08T10:21:14;5.07;;;4.53;;
39970;SDS011;35425;51.142;17.178;2023-01-08T10:23:51;5.68;;;4.60;;
39970;SDS011;35425;51.142;17.178;2023-01-08T10:26:31;4.93;;;4.43;;
39970;SDS011;35425;51.142;17.178;2023-01-08T10:29:14;4.90;;;4.40;;
39970;SDS011;35425;51.142;17.178;2023-01-08T10:34:20;5.47;;;4.85;;
39970;SDS011;35425;51.142;17.178;2023-01-08T10:36:48;7.00;;;4.72;;
39970;SDS011;35425;51.142;17.178;2023-01-08T10:39:21;5.32;;;4.82;;
39970;SDS011;35425;51.142;17.178;2023-01-08T10:41:49;5.30;;;4.60;;
39970;SDS011;35425;51.142;17.178;2023-01-08T10:44:16;5.70;;;4.68;;
39970;SDS011;35425;51.142;17.178;2023-01-08T10:46:44;5.20;;;4.43;;
39970;SDS011;35425;51.142;17.178;2023-01-08T10:49:17;5.97;;;5.00;;
39970;SDS011;35425;51.142;17.178;2023-01-08T10:51:49;5.68;;;5.07;;
39970;SDS011;35425;51.142;17.178;2023-01-08T10:54:25;6.05;;;4.78;;
39970;SDS011;35425;51.142;17.178;2023-01-08T10:56:52;5.53;;;4.30;;
39970;SDS011;35425;51.142;17.178;2023-01-08T10:59:19;7.10;;;4.68;;
39970;SDS011;35425;51.142;17.178;2023-01-08T11:01:46;5.78;;;4.55;;
39970;SDS011;35425;51.142;17.178;2023-01-08T11:04:47;5.32;;;4.82;;
39970;SDS011;35425;51.142;17.178;2023-01-08T11:07:06;6.78;;;4.60;;
39970;SDS011;35425;51.142;17.178;2023-01-08T11:09:36;5.72;;;5.07;;
39970;SDS011;35425;51.142;17.178;2023-01-08T11:12:15;6.13;;;5.10;;
39970;SDS011;35425;51.142;17.178;2023-01-08T11:14:51;6.20;;;5.00;;
39970;SDS011;35425;51.142;17.178;2023-01-08T11:17:18;5.50;;;4.88;;
39970;SDS011;35425;51.142;17.178;2023-01-08T11:19:44;5.55;;;4.95;;
39970;SDS011;35425;51.142;17.178;2023-01-08T11:22:18;5.55;;;4.95;;
39970;SDS011;35425;51.142;17.178;2023-01-08T11:24:49;5.88;;;5.28;;
39970;SDS011;35425;51.142;17.178;2023-01-08T11:27:24;5.38;;;4.85;;
39970;SDS011;35425;51.142;17.178;2023-01-08T11:34:56;6.25;;;4.80;;
39970;SDS011;35425;51.142;17.178;2023-01-08T11:37:28;4.63;;;4.22;;
39970;SDS011;35425;51.142;17.178;2023-01-08T11:39:55;5.30;;;4.80;;
39970;SDS011;35425;51.142;17.178;2023-01-08T11:50:52;5.43;;;4.30;;
39970;SDS011;35425;51.142;17.178;2023-01-08T11:53:36;4.90;;;4.40;;
39970;SDS011;35425;51.142;17.178;2023-01-08T11:56:13;5.00;;;4.50;;
39970;SDS011;35425;51.142;17.178;2023-01-08T11:58:46;5.03;;;4.53;;
39970;SDS011;35425;51.142;17.178;2023-01-08T12:01:20;4.68;;;4.15;;
39970;SDS011;35425;51.142;17.178;2023-01-08T12:03:50;4.95;;;4.45;;
39970;SDS011;35425;51.142;17.178;2023-01-08T12:06:27;5.22;;;4.43;;
39970;SDS011;35425;51.142;17.178;2023-01-08T12:09:05;4.68;;;4.15;;
39970;SDS011;35425;51.142;17.178;2023-01-08T12:11:37;4.47;;;4.00;;
39970;SDS011;35425;51.142;17.178;2023-01-08T12:16:56;4.72;;;4.07;;
39970;SDS011;35425;51.142;17.178;2023-01-08T12:27:08;4.40;;;4.00;;
39970;SDS011;35425;51.142;17.178;2023-01-08T12:30:03;4.30;;;3.90;;
39970;SDS011;35425;51.142;17.178;2023-01-08T12:32:37;4.18;;;3.58;;
39970;SDS011;35425;51.142;17.178;2023-01-08T12:35:10;4.10;;;3.67;;
39970;SDS011;35425;51.142;17.178;2023-01-08T12:40:41;3.75;;;3.33;;
39970;SDS011;35425;51.142;17.178;2023-01-08T12:43:18;4.15;;;3.53;;
39970;SDS011;35425;51.142;17.178;2023-01-08T12:45:47;4.15;;;3.75;;
39970;SDS011;35425;51.142;17.178;2023-01-08T12:48:25;4.00;;;3.50;;
39970;SDS011;35425;51.142;17.178;2023-01-08T12:56:20;3.85;;;3.30;;
39970;SDS011;35425;51.142;17.178;2023-01-08T12:58:59;3.45;;;3.15;;
39970;SDS011;35425;51.142;17.178;2023-01-08T13:04:13;3.40;;;3.10;;
39970;SDS011;35425;51.142;17.178;2023-01-08T13:06:50;3.80;;;3.40;;
39970;SDS011;35425;51.142;17.178;2023-01-08T13:09:20;3.28;;;2.97;;
39970;SDS011;35425;51.142;17.178;2023-01-08T13:11:49;3.92;;;3.40;;
39970;SDS011;35425;51.142;17.178;2023-01-08T13:14:17;3.70;;;3.40;;
39970;SDS011;35425;51.142;17.178;2023-01-08T13:16:44;3.60;;;3.08;;
39970;SDS011;35425;51.142;17.178;2023-01-08T13:19:27;3.58;;;3.08;;
39970;SDS011;35425;51.142;17.178;2023-01-08T13:21:58;3.38;;;3.08;;
39970;SDS011;35425;51.142;17.178;2023-01-08T13:26:54;3.92;;;3.40;;
39970;SDS011;35425;51.142;17.178;2023-01-08T13:29:22;3.47;;;3.17;;
39970;SDS011;35425;51.142;17.178;2023-01-08T13:31:49;4.40;;;4.00;;
39970;SDS011;35425;51.142;17.178;2023-01-08T13:34:20;3.13;;;2.75;;
39970;SDS011;35425;51.142;17.178;2023-01-08T13:36:56;3.25;;;2.92;;
39970;SDS011;35425;51.142;17.178;2023-01-08T13:39:23;4.20;;;3.10;;
39970;SDS011;35425;51.142;17.178;2023-01-08T13:44:30;3.40;;;3.10;;
39970;SDS011;35425;51.142;17.178;2023-01-08T13:47:00;3.55;;;3.22;;
39970;SDS011;35425;51.142;17.178;2023-01-08T13:49:34;3.63;;;3.25;;
39970;SDS011;35425;51.142;17.178;2023-01-08T13:52:01;3.15;;;2.85;;
39970;SDS011;35425;51.142;17.178;2023-01-08T13:56:54;3.90;;;3.45;;
39970;SDS011;35425;51.142;17.178;2023-01-08T13:59:33;3.25;;;2.90;;
39970;SDS011;35425;51.142;17.178;2023-01-08T14:02:01;3.53;;;2.72;;
39970;SDS011;35425;51.142;17.178;2023-01-08T14:04:27;4.43;;;3.25;;
39970;SDS011;35425;51.142;17.178;2023-01-08T14:07:13;3.15;;;2.85;;
39970;SDS011;35425;51.142;17.178;2023-01-08T14:09:40;3.67;;;3.00;;
39970;SDS011;35425;51.142;17.178;2023-01-08T14:12:07;3.28;;;2.95;;
39970;SDS011;35425;51.142;17.178;2023-01-08T14:14:37;3.70;;;2.65;;
39970;SDS011;35425;51.142;17.178;2023-01-08T14:17:03;3.38;;;3.05;;
39970;SDS011;35425;51.142;17.178;2023-01-08T14:19:30;3.75;;;3.25;;
39970;SDS011;35425;51.142;17.178;2023-01-08T14:21:57;3.53;;;3.22;;
39970;SDS011;35425;51.142;17.178;2023-01-08T14:24:24;3.67;;;3.30;;
39970;SDS011;35425;51.142;17.178;2023-01-08T14:26:52;3.60;;;3.03;;
39970;SDS011;35425;51.142;17.178;2023-01-08T14:29:19;3.28;;;2.97;;
39970;SDS011;35425;51.142;17.178;2023-01-08T14:31:51;3.40;;;3.05;;
39970;SDS011;35425;51.142;17.178;2023-01-08T14:34:19;3.22;;;2.92;;
39970;SDS011;35425;51.142;17.178;2023-01-08T14:36:47;4.13;;;3.00;;
39970;SDS011;35425;51.142;17.178;2023-01-08T14:39:21;3.90;;;2.53;;
39970;SDS011;35425;51.142;17.178;2023-01-08T14:41:48;3.90;;;3.00;;
39970;SDS011;35425;51.142;17.178;2023-01-08T14:44:34;4.38;;;3.22;;
39970;SDS011;35425;51.142;17.178;2023-01-08T14:47:12;3.20;;;2.83;;
39970;SDS011;35425;51.142;17.178;2023-01-08T14:49:41;3.42;;;3.13;;
39970;SDS011;35425;51.142;17.178;2023-01-08T14:52:10;3.28;;;2.63;;
39970;SDS011;35425;51.142;17.178;2023-01-08T14:54:38;3.88;;;3.00;;
39970;SDS011;35425;51.142;17.178;2023-01-08T14:57:04;3.53;;;2.90;;
39970;SDS011;35425;51.142;17.178;2023-01-08T14:59:32;3.58;;;3.05;;
39970;SDS011;35425;51.142;17.178;2023-01-08T15:02:00;4.38;;;3.20;;
39970;SDS011;35425;51.142;17.178;2023-01-08T15:04:27;3.50;;;3.10;;
39970;SDS011;35425;51.142;17.178;2023-01-08T15:07:04;3.75;;;3.20;;
39970;SDS011;35425;51.142;17.178;2023-01-08T15:09:31;4.10;;;3.70;;
39970;SDS011;35425;51.142;17.178;2023-01-08T15:12:00;4.45;;;3.72;;
39970;SDS011;35425;51.142;17.178;2023-01-08T15:14:27;5.55;;;4.60;;
39970;SDS011;35425;51.142;17.178;2023-01-08T15:16:55;4.93;;;4.13;;
39970;SDS011;35425;51.142;17.178;2023-01-08T15:19:26;4.40;;;3.95;;
39970;SDS011;35425;51.142;17.178;2023-01-08T15:21:54;5.65;;;4.63;;
39970;SDS011;35425;51.142;17.178;2023-01-08T15:24:26;5.60;;;4.70;;
39970;SDS011;35425;51.142;17.178;2023-01-08T15:26:54;5.85;;;4.97;;
39970;SDS011;35425;51.142;17.178;2023-01-08T15:29:30;5.85;;;5.05;;
39970;SDS011;35425;51.142;17.178;2023-01-08T15:34:44;6.82;;;5.75;;
39970;SDS011;35425;51.142;17.178;2023-01-08T15:37:11;6.88;;;6.00;;
39970;SDS011;35425;51.142;17.178;2023-01-08T15:39:38;7.88;;;5.97;;